Time;durP1;ratioP1;P1;durP2;ratioP2;P2;SDS_P1;SDS_P2;PMS_P1;PMS_P2;Temp;Humidity;BMP_temperature;BMP_pressure;BME280_temperature;BME280_humidity;BME280_pressure;Samples;Min_cycle;Max_cycle;Signal;HPM_P1;HPM_P2
2021/05/27 00:00:43;;;;;;;9.20;6.68;;;;;;;;;;5016579;28;20033;-71
2021/05/27 00:03:09;;;;;;;8.68;6.55;;;;;;;;;;5016839;28;20030;-71
2021/05/27 00:05:35;;;;;;;9.70;6.18;;;;;;;;;;5016469;28;20068;-71
2021/05/27 00:08:02;;;;;;;9.65;7.10;;;;;;;;;;5016638;28;20022;-70
2021/05/27 00:10:29;;;;;;;8.63;6.68;;;;;;;;;;5016221;28;20036;-70
2021/05/27 00:12:55;;;;;;;7.15;5.70;;;;;;;;;;5016122;28;20468;-71
2021/05/27 00:15:22;;;;;;;6.97;5.80;;;;;;;;;;5016209;28;20037;-71
2021/05/27 00:17:48;;;;;;;9.00;5.78;;;;;;;;;;5016321;28;20021;-70
2021/05/27 00:20:14;;;;;;;9.55;6.32;;;;;;;;;;5016086;28;20022;-71
2021/05/27 00:22:41;;;;;;;8.75;6.05;;;;;;;;;;5016350;28;20456;-71
2021/05/27 00:25:08;;;;;;;6.97;5.88;;;;;;;;;;5016152;28;20038;-70
2021/05/27 00:27:34;;;;;;;11.00;6.65;;;;;;;;;;5016186;28;20120;-70
2021/05/27 00:30:00;;;;;;;7.85;6.03;;;;;;;;;;5015641;28;20026;-71
2021/05/27 00:32:26;;;;;;;7.20;5.55;;;;;;;;;;5015822;28;20061;-71
2021/05/27 00:34:52;;;;;;;8.20;6.00;;;;;;;;;;5015975;28;20121;-70
2021/05/27 00:37:19;;;;;;;7.82;6.03;;;;;;;;;;5016338;28;20026;-69
2021/05/27 00:39:45;;;;;;;7.85;5.43;;;;;;;;;;5016121;28;20153;-70
2021/05/27 00:42:11;;;;;;;7.38;5.78;;;;;;;;;;5015461;28;20483;-71
2021/05/27 00:44:37;;;;;;;6.95;5.35;;;;;;;;;;5015442;28;20472;-71
2021/05/27 00:47:06;;;;;;;11.98;5.75;;;;;;;;;;5016145;28;20484;-70
2021/05/27 00:49:32;;;;;;;8.07;5.57;;;;;;;;;;5015717;28;20057;-70
2021/05/27 00:51:59;;;;;;;6.82;5.40;;;;;;;;;;5015852;28;20159;-71
2021/05/27 00:54:25;;;;;;;8.85;5.78;;;;;;;;;;5015356;28;20026;-70
2021/05/27 00:56:51;;;;;;;7.78;5.82;;;;;;;;;;5015516;28;20472;-71
2021/05/27 00:59:17;;;;;;;11.68;5.22;;;;;;;;;;5015241;28;20025;-71
2021/05/27 01:01:43;;;;;;;7.45;5.25;;;;;;;;;;5015934;28;20084;-70
2021/05/27 01:04:09;;;;;;;8.93;6.05;;;;;;;;;;5015102;28;20022;-71
2021/05/27 01:06:35;;;;;;;5.90;5.05;;;;;;;;;;5015960;28;20054;-71
2021/05/27 01:09:02;;;;;;;7.13;5.78;;;;;;;;;;5015305;28;20040;-70
2021/05/27 01:11:28;;;;;;;7.22;6.53;;;;;;;;;;5015037;28;20025;-70
2021/05/27 01:13:54;;;;;;;6.60;5.40;;;;;;;;;;5015004;28;20463;-71
2021/05/27 01:16:21;;;;;;;5.28;4.78;;;;;;;;;;5014815;28;20472;-70
2021/05/27 01:18:47;;;;;;;8.20;4.97;;;;;;;;;;5015759;28;20026;-70
2021/05/27 01:21:13;;;;;;;9.82;5.13;;;;;;;;;;5015108;28;20395;-72
2021/05/27 01:23:39;;;;;;;6.00;5.20;;;;;;;;;;5015523;28;20026;-70
2021/05/27 01:26:05;;;;;;;5.82;5.32;;;;;;;;;;5015454;28;20038;-70
2021/05/27 01:28:33;;;;;;;9.65;4.53;;;;;;;;;;5014382;28;20022;-71
2021/05/27 01:31:00;;;;;;;9.68;5.38;;;;;;;;;;5015510;28;20475;-71
2021/05/27 01:33:26;;;;;;;6.15;5.07;;;;;;;;;;5015305;28;20108;-71
2021/05/27 01:35:54;;;;;;;6.40;4.78;;;;;;;;;;5014971;28;20492;-70
2021/05/27 01:38:21;;;;;;;8.05;4.50;;;;;;;;;;5014782;28;20029;-71
2021/05/27 01:40:47;;;;;;;5.20;4.70;;;;;;;;;;5014690;28;20026;-70
2021/05/27 01:43:13;;;;;;;7.05;4.80;;;;;;;;;;5014593;28;20022;-70
2021/05/27 01:45:40;;;;;;;6.65;4.80;;;;;;;;;;5014786;28;20041;-70
2021/05/27 01:48:06;;;;;;;8.10;5.20;;;;;;;;;;5014518;28;20460;-70
2021/05/27 01:50:32;;;;;;;6.18;5.20;;;;;;;;;;5014518;28;20030;-70
2021/05/27 01:52:59;;;;;;;5.85;4.53;;;;;;;;;;5014729;28;20032;-70
2021/05/27 01:55:25;;;;;;;6.20;4.40;;;;;;;;;;5014354;28;20036;-70
2021/05/27 01:57:51;;;;;;;6.55;4.75;;;;;;;;;;5014212;28;20083;-70
2021/05/27 02:00:18;;;;;;;6.05;4.57;;;;;;;;;;5014371;28;20026;-70
2021/05/27 02:02:44;;;;;;;11.75;4.20;;;;;;;;;;5014555;28;20030;-70
2021/05/27 02:05:11;;;;;;;9.25;4.93;;;;;;;;;;5014299;28;20054;-70
2021/05/27 02:07:37;;;;;;;4.95;4.35;;;;;;;;;;5014481;28;20026;-70
2021/05/27 02:10:03;;;;;;;6.93;4.70;;;;;;;;;;5014016;28;20491;-69
2021/05/27 02:12:29;;;;;;;5.13;4.38;;;;;;;;;;5013987;28;20022;-70
2021/05/27 02:14:55;;;;;;;6.45;4.55;;;;;;;;;;5014266;28;20104;-71
2021/05/27 02:17:21;;;;;;;8.88;4.63;;;;;;;;;;5014422;28;20056;-71
2021/05/27 02:19:47;;;;;;;5.88;4.07;;;;;;;;;;5014130;28;20037;-70
2021/05/27 02:22:13;;;;;;;6.13;4.72;;;;;;;;;;5012856;28;20033;-71
2021/05/27 02:24:39;;;;;;;5.10;4.60;;;;;;;;;;5014034;28;20030;-70
2021/05/27 02:27:06;;;;;;;4.47;4.05;;;;;;;;;;5013593;28;20026;-70
2021/05/27 02:29:32;;;;;;;5.03;4.28;;;;;;;;;;5013973;28;20365;-70
2021/05/27 02:31:58;;;;;;;5.05;4.43;;;;;;;;;;5014034;28;20032;-70
2021/05/27 02:34:24;;;;;;;4.93;4.18;;;;;;;;;;5013772;28;20017;-71
2021/05/27 02:36:50;;;;;;;6.47;4.03;;;;;;;;;;5014174;28;20037;-71
2021/05/27 02:39:16;;;;;;;4.82;4.22;;;;;;;;;;5013840;28;20026;-71
2021/05/27 02:41:42;;;;;;;7.18;4.43;;;;;;;;;;5013628;28;20129;-71
2021/05/27 02:44:08;;;;;;;6.85;4.78;;;;;;;;;;5013448;28;20101;-72
2021/05/27 02:46:34;;;;;;;4.82;4.32;;;;;;;;;;5014005;28;20380;-71
2021/05/27 02:49:00;;;;;;;7.65;4.22;;;;;;;;;;5014044;28;20029;-72
2021/05/27 02:51:26;;;;;;;5.30;4.35;;;;;;;;;;5014003;28;20500;-72
2021/05/27 02:53:52;;;;;;;5.55;3.70;;;;;;;;;;5013768;28;20121;-71
2021/05/27 02:56:19;;;;;;;3.70;3.40;;;;;;;;;;5013111;28;20473;-72
2021/05/27 02:58:45;;;;;;;7.72;4.07;;;;;;;;;;5014356;28;20172;-71
2021/05/27 03:01:11;;;;;;;5.32;3.92;;;;;;;;;;5014144;28;20037;-72
2021/05/27 03:03:37;;;;;;;4.75;3.85;;;;;;;;;;5013568;28;20084;-71
2021/05/27 03:06:03;;;;;;;5.15;3.80;;;;;;;;;;5013314;28;20083;-72
2021/05/27 03:08:29;;;;;;;3.65;3.05;;;;;;;;;;5013423;28;20030;-72
2021/05/27 03:10:56;;;;;;;4.10;3.65;;;;;;;;;;5013337;28;20376;-72
2021/05/27 03:13:22;;;;;;;4.07;3.45;;;;;;;;;;5014000;28;20030;-71
2021/05/27 03:15:48;;;;;;;4.75;3.83;;;;;;;;;;5013696;28;20042;-71
2021/05/27 03:18:14;;;;;;;6.00;3.42;;;;;;;;;;5013078;28;20471;-72
2021/05/27 03:20:40;;;;;;;6.30;3.00;;;;;;;;;;5013873;28;20033;-72
2021/05/27 03:23:06;;;;;;;3.40;3.08;;;;;;;;;;5013761;28;20032;-72
2021/05/27 03:25:33;;;;;;;6.18;3.33;;;;;;;;;;5013379;28;20088;-71
2021/05/27 03:27:59;;;;;;;4.43;3.63;;;;;;;;;;5013774;28;20026;-73
2021/05/27 03:30:25;;;;;;;4.00;3.60;;;;;;;;;;5013067;28;20030;-72
2021/05/27 03:32:51;;;;;;;6.35;3.25;;;;;;;;;;5014260;28;20092;-72
2021/05/27 03:35:18;;;;;;;3.45;2.63;;;;;;;;;;5016851;28;20357;-71
2021/05/27 03:37:44;;;;;;;4.15;3.33;;;;;;;;;;5016893;28;20117;-72
2021/05/27 03:40:14;;;;;;;4.40;3.30;;;;;;;;;;5016631;28;20108;-72
2021/05/27 03:42:41;;;;;;;4.30;3.50;;;;;;;;;;5017669;28;20169;-71
2021/05/27 03:45:08;;;;;;;4.03;2.97;;;;;;;;;;5016946;28;20033;-72
2021/05/27 03:47:34;;;;;;;12.20;3.72;;;;;;;;;;5017003;28;20096;-72
2021/05/27 03:50:00;;;;;;;4.30;3.30;;;;;;;;;;5016882;28;20022;-72
2021/05/27 03:52:26;;;;;;;4.30;3.20;;;;;;;;;;5016689;28;20468;-71
2021/05/27 03:54:52;;;;;;;3.30;2.78;;;;;;;;;;5016283;28;20380;-71
2021/05/27 03:57:18;;;;;;;4.18;2.95;;;;;;;;;;5016879;28;20069;-70
2021/05/27 04:02:30;;;;;;;2.90;2.50;;;;;;;;;;5001680;28;20033;-71
2021/05/27 04:07:42;;;;;;;4.00;3.00;;;;;;;;;;5002478;28;20041;-71
2021/05/27 04:10:09;;;;;;;5.35;3.22;;;;;;;;;;5016478;28;20026;-71
2021/05/27 04:12:50;;;;;;;4.13;3.17;;;;;;;;;;5016564;28;20022;-71
2021/05/27 04:15:22;;;;;;;4.72;3.22;;;;;;;;;;5016445;28;20460;-72
2021/05/27 04:17:49;;;;;;;3.08;2.78;;;;;;;;;;5016211;28;20065;-72
2021/05/27 04:20:16;;;;;;;3.72;2.90;;;;;;;;;;5016241;28;20364;-71
2021/05/27 04:22:43;;;;;;;4.65;3.00;;;;;;;;;;5016332;28;20029;-71
2021/05/27 04:25:10;;;;;;;3.33;3.03;;;;;;;;;;5016523;28;20033;-72
2021/05/27 04:27:36;;;;;;;4.70;3.58;;;;;;;;;;5016253;28;20030;-71
2021/05/27 04:30:13;;;;;;;5.72;3.10;;;;;;;;;;5015872;28;20465;-71
2021/05/27 04:35:29;;;;;;;4.88;2.88;;;;;;;;;;5001480;28;20434;-71
2021/05/27 04:37:55;;;;;;;3.65;2.45;;;;;;;;;;5015769;28;20041;-71
2021/05/27 04:40:21;;;;;;;5.43;2.20;;;;;;;;;;5015553;28;20468;-71
2021/05/27 04:42:47;;;;;;;4.70;2.78;;;;;;;;;;5015825;28;20034;-71
2021/05/27 04:45:14;;;;;;;5.45;2.70;;;;;;;;;;5014462;28;20472;-71
2021/05/27 04:47:40;;;;;;;11.05;2.45;;;;;;;;;;5016332;28;20479;-71
2021/05/27 04:50:07;;;;;;;3.20;2.55;;;;;;;;;;5015844;28;20017;-71
2021/05/27 04:52:33;;;;;;;3.42;2.55;;;;;;;;;;5014986;28;20032;-72
2021/05/27 04:54:59;;;;;;;2.70;2.40;;;;;;;;;;5015019;28;20026;-71
2021/05/27 04:57:25;;;;;;;5.97;2.95;;;;;;;;;;5015299;28;20088;-73
2021/05/27 04:59:51;;;;;;;7.00;3.08;;;;;;;;;;5015036;28;20028;-71
2021/05/27 05:02:17;;;;;;;8.60;3.55;;;;;;;;;;5014775;28;20530;-71
2021/05/27 05:04:43;;;;;;;11.50;2.80;;;;;;;;;;5014896;28;20409;-70
2021/05/27 05:07:09;;;;;;;3.15;2.53;;;;;;;;;;5014926;28;20030;-71
2021/05/27 05:09:35;;;;;;;4.32;2.72;;;;;;;;;;5015088;28;20189;-71
2021/05/27 05:12:01;;;;;;;3.55;2.75;;;;;;;;;;5014612;28;20491;-72
2021/05/27 05:14:27;;;;;;;9.73;3.10;;;;;;;;;;5014036;28;20061;-71
2021/05/27 05:16:53;;;;;;;10.20;3.08;;;;;;;;;;5014783;28;20049;-70
2021/05/27 05:19:19;;;;;;;15.10;3.30;;;;;;;;;;5015377;28;20026;-72
2021/05/27 05:21:46;;;;;;;8.07;3.47;;;;;;;;;;5014297;28;20171;-72
2021/05/27 05:24:12;;;;;;;11.25;3.40;;;;;;;;;;5015064;28;20033;-72
2021/05/27 05:26:38;;;;;;;9.93;3.72;;;;;;;;;;5015189;28;20495;-71
2021/05/27 05:29:04;;;;;;;9.05;4.97;;;;;;;;;;5014611;28;20469;-72
2021/05/27 05:31:30;;;;;;;18.90;4.63;;;;;;;;;;5015064;28;20033;-71
2021/05/27 05:33:56;;;;;;;8.05;4.05;;;;;;;;;;5015243;28;20026;-72
2021/05/27 05:36:23;;;;;;;9.27;3.78;;;;;;;;;;5014681;28;20088;-73
2021/05/27 05:38:49;;;;;;;19.48;4.45;;;;;;;;;;5014943;28;20030;-72
2021/05/27 05:41:15;;;;;;;7.18;3.75;;;;;;;;;;5014473;28;20423;-72
2021/05/27 05:43:41;;;;;;;8.00;4.13;;;;;;;;;;5014710;28;20495;-72
2021/05/27 05:46:07;;;;;;;8.20;4.22;;;;;;;;;;5014828;28;20026;-72
2021/05/27 05:48:34;;;;;;;6.13;3.80;;;;;;;;;;5014828;28;20092;-72
2021/05/27 05:51:00;;;;;;;5.70;3.85;;;;;;;;;;5014997;28;20555;-72
2021/05/27 05:53:26;;;;;;;18.77;5.15;;;;;;;;;;5014568;28;20518;-72
2021/05/27 05:55:53;;;;;;;7.13;4.03;;;;;;;;;;5014193;28;20122;-72
2021/05/27 05:58:19;;;;;;;12.68;3.83;;;;;;;;;;5014058;28;20062;-72
2021/05/27 06:00:45;;;;;;;19.30;4.18;;;;;;;;;;5015161;28;20480;-72
2021/05/27 06:03:12;;;;;;;13.15;3.65;;;;;;;;;;5014316;28;20029;-72
2021/05/27 06:05:38;;;;;;;5.45;3.20;;;;;;;;;;5013951;28;20061;-72
2021/05/27 06:08:04;;;;;;;8.73;3.88;;;;;;;;;;5014516;28;20503;-72
2021/05/27 06:10:30;;;;;;;9.35;3.88;;;;;;;;;;5013857;28;20034;-72
2021/05/27 06:12:56;;;;;;;19.77;4.28;;;;;;;;;;5013888;28;20025;-72
2021/05/27 06:15:23;;;;;;;8.02;3.72;;;;;;;;;;5014123;28;20030;-72
2021/05/27 06:17:49;;;;;;;7.35;3.75;;;;;;;;;;5014388;28;20116;-71
2021/05/27 06:20:16;;;;;;;13.40;4.18;;;;;;;;;;5013943;28;20026;-72
2021/05/27 06:22:42;;;;;;;11.80;3.60;;;;;;;;;;5014137;28;20018;-72
2021/05/27 06:25:08;;;;;;;17.42;3.10;;;;;;;;;;5014120;28;20371;-72
2021/05/27 06:27:34;;;;;;;13.38;3.78;;;;;;;;;;5014032;28;20088;-72
2021/05/27 06:30:01;;;;;;;25.92;6.30;;;;;;;;;;5013951;28;20109;-72
2021/05/27 06:32:29;;;;;;;23.40;9.60;;;;;;;;;;5013682;28;20375;-72
2021/05/27 06:34:55;;;;;;;21.65;7.38;;;;;;;;;;5013917;28;20117;-72
2021/05/27 06:37:21;;;;;;;22.38;8.20;;;;;;;;;;5013793;28;20030;-71
2021/05/27 06:39:47;;;;;;;22.40;6.68;;;;;;;;;;5013689;28;20384;-72
2021/05/27 06:42:13;;;;;;;14.18;5.50;;;;;;;;;;5013313;28;20026;-71
2021/05/27 06:44:40;;;;;;;15.32;5.03;;;;;;;;;;5014280;28;20029;-71
2021/05/27 06:47:06;;;;;;;10.90;4.55;;;;;;;;;;5013878;28;20029;-72
2021/05/27 06:49:32;;;;;;;9.57;3.75;;;;;;;;;;5013490;28;20037;-71
2021/05/27 06:52:00;;;;;;;11.88;5.05;;;;;;;;;;5013871;28;20411;-71
2021/05/27 06:54:26;;;;;;;21.48;4.00;;;;;;;;;;5013228;28;20061;-72
2021/05/27 06:56:52;;;;;;;12.73;4.28;;;;;;;;;;5013183;28;20499;-71
2021/05/27 06:59:18;;;;;;;10.20;3.60;;;;;;;;;;5013836;28;20500;-72
2021/05/27 07:01:45;;;;;;;10.40;3.92;;;;;;;;;;5013200;28;20030;-71
2021/05/27 07:04:11;;;;;;;18.45;4.30;;;;;;;;;;5012823;28;20092;-71
2021/05/27 07:06:37;;;;;;;8.68;3.72;;;;;;;;;;5013578;28;20026;-71
2021/05/27 07:09:04;;;;;;;13.05;3.80;;;;;;;;;;5016288;28;20392;-72
2021/05/27 07:11:30;;;;;;;11.55;4.95;;;;;;;;;;5017222;28;20476;-71
2021/05/27 07:13:56;;;;;;;24.40;7.80;;;;;;;;;;5017586;28;20026;-70
2021/05/27 07:16:22;;;;;;;25.95;12.00;;;;;;;;;;5030666;28;20061;-70
2021/05/27 07:18:48;;;;;;;56.03;24.58;;;;;;;;;;5034751;28;20021;-69
2021/05/27 07:21:14;;;;;;;46.17;20.92;;;;;;;;;;5036929;28;20029;-70
2021/05/27 07:23:40;;;;;;;49.38;17.83;;;;;;;;;;5036671;28;20114;-71
2021/05/27 07:26:06;;;;;;;29.88;17.42;;;;;;;;;;5036166;28;20029;-71
2021/05/27 07:28:32;;;;;;;34.65;16.00;;;;;;;;;;5036847;28;20029;-71
2021/05/27 07:31:00;;;;;;;34.83;17.08;;;;;;;;;;5037975;28;20472;-70
2021/05/27 07:33:26;;;;;;;37.50;17.95;;;;;;;;;;5037606;28;20172;-69
2021/05/27 07:35:52;;;;;;;35.75;17.15;;;;;;;;;;5025632;28;20484;-70
2021/05/27 07:38:18;;;;;;;46.78;17.33;;;;;;;;;;5016473;28;20121;-70
2021/05/27 07:40:46;;;;;;;39.03;16.10;;;;;;;;;;5016732;28;20022;-72
2021/05/27 07:43:12;;;;;;;41.50;16.75;;;;;;;;;;5016619;28;20076;-72
2021/05/27 07:45:38;;;;;;;30.48;14.88;;;;;;;;;;5017299;28;20036;-72
2021/05/27 07:52:29;;;;;;;33.50;14.20;;;;;;;;;;5151941;27;20442;-65
2021/05/27 07:54:55;;;;;;;35.05;15.07;;;;;;;;;;5131543;28;20092;-65
2021/05/27 07:57:21;;;;;;;38.60;17.00;;;;;;;;;;5131419;27;20035;-66
2021/05/27 07:59:47;;;;;;;48.35;17.63;;;;;;;;;;5131208;28;20106;-65
2021/05/27 08:02:13;;;;;;;57.38;28.85;;;;;;;;;;5131356;28;20076;-65
2021/05/27 08:04:43;;;;;;;58.88;28.33;;;;;;;;;;5130334;28;20066;-66
2021/05/27 08:07:09;;;;;;;65.30;31.70;;;;;;;;;;5130103;28;20110;-67
2021/05/27 08:09:35;;;;;;;64.72;36.85;;;;;;;;;;5131066;28;20089;-66
2021/05/27 08:12:01;;;;;;;130.63;39.30;;;;;;;;;;5112235;28;20073;-78
2021/05/27 08:14:27;;;;;;;68.28;31.83;;;;;;;;;;5112308;28;20083;-72
2021/05/27 08:16:54;;;;;;;61.92;29.77;;;;;;;;;;5112247;28;20024;-70
2021/05/27 08:19:20;;;;;;;52.10;26.05;;;;;;;;;;5112917;28;20458;-72
2021/05/27 08:21:46;;;;;;;53.47;27.95;;;;;;;;;;5112597;28;20016;-72
2021/05/27 08:24:12;;;;;;;38.97;20.58;;;;;;;;;;5111837;28;20119;-72
2021/05/27 08:26:38;;;;;;;37.08;21.98;;;;;;;;;;5112837;28;20069;-74
2021/05/27 08:29:04;;;;;;;42.83;21.75;;;;;;;;;;5113286;28;20035;-73
2021/05/27 08:31:30;;;;;;;37.22;20.63;;;;;;;;;;5112170;28;20036;-71
2021/05/27 08:33:57;;;;;;;30.30;18.02;;;;;;;;;;5112880;28;20024;-73
2021/05/27 08:36:23;;;;;;;31.38;15.45;;;;;;;;;;5112303;28;20028;-73
2021/05/27 08:38:49;;;;;;;39.55;16.10;;;;;;;;;;5108771;28;20489;-72
2021/05/27 08:41:17;;;;;;;39.83;27.35;;;;;;;;;;5106825;28;20023;-74
2021/05/27 08:43:43;;;;;;;24.45;13.70;;;;;;;;;;5107130;28;20102;-75
2021/05/27 08:46:09;;;;;;;25.50;15.25;;;;;;;;;;5111782;28;20030;-71
2021/05/27 08:48:35;;;;;;;26.50;13.30;;;;;;;;;;5112388;28;20465;-72
2021/05/27 08:51:01;;;;;;;20.02;12.40;;;;;;;;;;5112040;28;20146;-72
2021/05/27 08:53:27;;;;;;;28.75;11.63;;;;;;;;;;5109097;28;20039;-73
2021/05/27 08:55:54;;;;;;;22.98;11.65;;;;;;;;;;5110868;28;20080;-74
2021/05/27 08:58:21;;;;;;;23.48;12.13;;;;;;;;;;5107835;28;20446;-73
2021/05/27 09:00:48;;;;;;;15.50;8.45;;;;;;;;;;5110878;28;20028;-74
2021/05/27 09:03:15;;;;;;;12.60;8.30;;;;;;;;;;5100449;28;20039;-74
2021/05/27 09:05:41;;;;;;;14.45;7.85;;;;;;;;;;5098159;28;20030;-79
2021/05/27 09:08:08;;;;;;;13.82;5.65;;;;;;;;;;5097752;28;20031;-76
2021/05/27 09:10:49;;;;;;;9.38;5.22;;;;;;;;;;5095703;28;20077;-74
2021/05/27 09:13:16;;;;;;;11.07;5.45;;;;;;;;;;5095756;28;20377;-74
2021/05/27 09:15:42;;;;;;;13.68;4.80;;;;;;;;;;5095846;28;20032;-75
2021/05/27 09:18:08;;;;;;;6.60;4.22;;;;;;;;;;5095875;28;20035;-76
2021/05/27 09:20:34;;;;;;;5.32;3.33;;;;;;;;;;5097101;28;20479;-74
2021/05/27 09:23:08;;;;;;;4.32;3.33;;;;;;;;;;5096639;28;20474;-74
2021/05/27 09:25:36;;;;;;;5.32;3.92;;;;;;;;;;5097107;28;20024;-74
2021/05/27 09:28:02;;;;;;;7.18;3.72;;;;;;;;;;5096795;28;20039;-74
2021/05/27 09:30:28;;;;;;;4.32;3.00;;;;;;;;;;5096472;28;20477;-75
2021/05/27 09:32:54;;;;;;;10.02;2.88;;;;;;;;;;5096504;28;20057;-75
2021/05/27 09:35:21;;;;;;;5.45;3.45;;;;;;;;;;5096482;28;20026;-74
2021/05/27 09:37:48;;;;;;;8.38;2.60;;;;;;;;;;5096141;28;20405;-75
2021/05/27 09:40:35;;;;;;;4.28;2.65;;;;;;;;;;5096126;28;20020;-74
2021/05/27 09:43:01;;;;;;;8.40;3.55;;;;;;;;;;5082127;28;20028;-74
2021/05/27 09:45:28;;;;;;;6.72;3.03;;;;;;;;;;5096247;28;20012;-74
2021/05/27 09:47:54;;;;;;;23.30;9.40;;;;;;;;;;5096491;28;20093;-75
2021/05/27 09:50:30;;;;;;;35.88;7.10;;;;;;;;;;5095340;28;20031;-75
2021/05/27 09:52:56;;;;;;;33.17;12.25;;;;;;;;;;5096811;28;20031;-74
2021/05/27 09:55:23;;;;;;;41.25;12.77;;;;;;;;;;5096132;28;20024;-76
2021/05/27 09:57:49;;;;;;;21.33;8.35;;;;;;;;;;5096058;28;20027;-74
2021/05/27 10:00:27;;;;;;;27.33;10.07;;;;;;;;;;5095585;28;20105;-73
2021/05/27 10:02:53;;;;;;;24.58;8.65;;;;;;;;;;5095565;28;20472;-73
2021/05/27 10:05:19;;;;;;;16.45;7.85;;;;;;;;;;5095905;28;20089;-73
2021/05/27 10:07:50;;;;;;;20.95;8.18;;;;;;;;;;5096256;28;20043;-72
2021/05/27 10:10:16;;;;;;;21.05;7.60;;;;;;;;;;5095676;28;20024;-76
2021/05/27 10:12:43;;;;;;;15.13;6.28;;;;;;;;;;5096104;28;20032;-74
2021/05/27 10:15:12;;;;;;;15.70;6.20;;;;;;;;;;5094823;28;20102;-74
2021/05/27 10:17:39;;;;;;;10.70;4.50;;;;;;;;;;5095393;28;20040;-74
2021/05/27 10:20:07;;;;;;;10.88;3.75;;;;;;;;;;5095573;28;20020;-74
2021/05/27 10:22:34;;;;;;;13.38;3.63;;;;;;;;;;5095986;28;20081;-73
2021/05/27 10:25:00;;;;;;;10.38;3.90;;;;;;;;;;5095528;28;20024;-74
2021/05/27 10:27:26;;;;;;;8.98;4.38;;;;;;;;;;5095246;28;20029;-75
2021/05/27 10:29:52;;;;;;;4.50;2.50;;;;;;;;;;5095096;28;20373;-75
2021/05/27 10:32:19;;;;;;;16.95;4.30;;;;;;;;;;5095157;28;20192;-72
2021/05/27 10:34:46;;;;;;;6.85;3.45;;;;;;;;;;5095896;28;20020;-72
2021/05/27 10:37:13;;;;;;;7.15;3.38;;;;;;;;;;5094949;28;20377;-72
2021/05/27 10:39:39;;;;;;;3.67;2.72;;;;;;;;;;5094892;28;20485;-72
2021/05/27 10:42:06;;;;;;;6.70;3.00;;;;;;;;;;5095168;28;20034;-72
2021/05/27 10:44:32;;;;;;;5.97;2.50;;;;;;;;;;5094937;28;20028;-73
2021/05/27 10:47:07;;;;;;;10.57;3.20;;;;;;;;;;5095224;28;20028;-73
2021/05/27 10:49:47;;;;;;;9.32;2.15;;;;;;;;;;5095533;28;20024;-72
2021/05/27 10:52:33;;;;;;;9.32;2.08;;;;;;;;;;5094675;28;20432;-72
2021/05/27 10:55:00;;;;;;;4.22;2.05;;;;;;;;;;5079940;28;20028;-72
2021/05/27 10:57:46;;;;;;;5.63;1.85;;;;;;;;;;5095496;28;20531;-73
2021/05/27 11:00:31;;;;;;;13.80;2.72;;;;;;;;;;5079967;28;20020;-72
2021/05/27 11:03:17;;;;;;;8.00;2.15;;;;;;;;;;5080159;28;20020;-72
2021/05/27 11:06:04;;;;;;;3.42;2.00;;;;;;;;;;5079906;28;20055;-72
2021/05/27 11:08:30;;;;;;;3.88;1.98;;;;;;;;;;5079697;28;20024;-72
2021/05/27 11:10:56;;;;;;;2.85;1.80;;;;;;;;;;5094469;28;20032;-72
2021/05/27 11:13:22;;;;;;;2.15;1.33;;;;;;;;;;5094712;28;20453;-72
2021/05/27 11:16:04;;;;;;;3.15;1.83;;;;;;;;;;5094692;28;20028;-73
2021/05/27 11:18:33;;;;;;;4.28;1.90;;;;;;;;;;5094492;28;20355;-72
2021/05/27 11:20:59;;;;;;;7.32;1.80;;;;;;;;;;5095261;28;20056;-72
2021/05/27 11:23:26;;;;;;;5.85;1.98;;;;;;;;;;5094347;28;20101;-72
2021/05/27 11:25:52;;;;;;;1.50;1.30;;;;;;;;;;5094403;28;20032;-72
2021/05/27 11:28:21;;;;;;;13.52;2.05;;;;;;;;;;5094331;28;20401;-72
2021/05/27 11:30:53;;;;;;;2.97;1.67;;;;;;;;;;5094431;28;20036;-72
2021/05/27 11:33:39;;;;;;;7.25;1.58;;;;;;;;;;5095047;28;20035;-72
2021/05/27 11:36:06;;;;;;;3.30;1.58;;;;;;;;;;5079627;28;20024;-72
2021/05/27 11:38:33;;;;;;;6.55;1.85;;;;;;;;;;5094056;28;20070;-72
2021/05/27 11:41:00;;;;;;;2.22;1.55;;;;;;;;;;5093828;28;20032;-73
2021/05/27 11:43:28;;;;;;;4.30;1.77;;;;;;;;;;5094822;28;20032;-73
2021/05/27 11:45:55;;;;;;;4.85;2.25;;;;;;;;;;5094683;28;20024;-72
2021/05/27 11:48:25;;;;;;;5.63;2.08;;;;;;;;;;5094025;28;20470;-73
2021/05/27 11:50:52;;;;;;;8.65;2.25;;;;;;;;;;5094306;28;20108;-72
2021/05/27 11:53:21;;;;;;;6.05;2.15;;;;;;;;;;5094163;28;20032;-71
2021/05/27 11:56:02;;;;;;;4.07;1.60;;;;;;;;;;5092569;28;20028;-71
2021/05/27 11:58:36;;;;;;;9.18;2.25;;;;;;;;;;5093582;28;20500;-70
2021/05/27 12:01:22;;;;;;;6.63;2.33;;;;;;;;;;5094127;28;20040;-71
2021/05/27 12:04:08;;;;;;;11.57;1.60;;;;;;;;;;5078772;28;20024;-74
2021/05/27 12:06:45;;;;;;;12.65;2.45;;;;;;;;;;5079741;28;20084;-71
2021/05/27 12:09:12;;;;;;;2.25;1.35;;;;;;;;;;5093844;28;20060;-71
2021/05/27 12:11:38;;;;;;;2.42;2.00;;;;;;;;;;5093613;28;20119;-71
2021/05/27 12:14:04;;;;;;;2.35;1.75;;;;;;;;;;5093668;28;20021;-72
2021/05/27 12:16:32;;;;;;;5.40;2.15;;;;;;;;;;5093328;28;20031;-72
2021/05/27 12:19:00;;;;;;;3.38;1.98;;;;;;;;;;5094115;28;20024;-72
2021/05/27 12:21:26;;;;;;;4.90;1.92;;;;;;;;;;5093658;28;20089;-72
2021/05/27 12:23:52;;;;;;;2.35;2.15;;;;;;;;;;5094191;28;20035;-70
2021/05/27 12:26:18;;;;;;;3.13;2.08;;;;;;;;;;5092974;28;20076;-72
2021/05/27 12:28:44;;;;;;;3.17;1.98;;;;;;;;;;5093198;28;20035;-72
2021/05/27 12:31:10;;;;;;;6.20;2.22;;;;;;;;;;5093183;28;20426;-74
2021/05/27 12:33:38;;;;;;;9.65;2.05;;;;;;;;;;5093226;28;20027;-72
2021/05/27 12:36:06;;;;;;;3.60;2.03;;;;;;;;;;5093803;28;20024;-72
2021/05/27 12:38:32;;;;;;;6.85;1.80;;;;;;;;;;5095753;28;20028;-72
2021/05/27 12:41:01;;;;;;;1.70;1.60;;;;;;;;;;5097149;28;20292;-72
2021/05/27 12:43:30;;;;;;;8.15;2.08;;;;;;;;;;5097409;28;20347;-71
2021/05/27 12:45:56;;;;;;;3.00;1.60;;;;;;;;;;5096896;28;20031;-72
2021/05/27 12:48:26;;;;;;;4.78;2.03;;;;;;;;;;5096772;28;20093;-73
2021/05/27 12:51:03;;;;;;;1.75;1.65;;;;;;;;;;5096786;28;20084;-72
2021/05/27 12:53:32;;;;;;;3.63;1.92;;;;;;;;;;5096810;28;20111;-71
2021/05/27 12:56:11;;;;;;;3.50;1.52;;;;;;;;;;5096931;28;20028;-73
2021/05/27 12:58:37;;;;;;;2.20;1.80;;;;;;;;;;5096689;28;20534;-72
2021/05/27 13:01:03;;;;;;;3.00;2.25;;;;;;;;;;5097701;28;20024;-72
2021/05/27 13:03:30;;;;;;;5.80;2.35;;;;;;;;;;5096915;28;20047;-70
2021/05/27 13:06:04;;;;;;;3.92;2.00;;;;;;;;;;5096525;28;20024;-70
2021/05/27 13:08:30;;;;;;;2.13;1.80;;;;;;;;;;5096839;28;20028;-70
2021/05/27 13:10:56;;;;;;;2.50;1.92;;;;;;;;;;5095622;28;20374;-71
2021/05/27 13:13:30;;;;;;;2.15;1.95;;;;;;;;;;5095942;28;20027;-70
2021/05/27 13:15:56;;;;;;;4.80;2.10;;;;;;;;;;5096237;28;20461;-69
2021/05/27 13:18:22;;;;;;;2.33;2.00;;;;;;;;;;5095998;28;20497;-70
2021/05/27 13:20:52;;;;;;;5.82;2.20;;;;;;;;;;5096094;28;20028;-71
2021/05/27 13:23:33;;;;;;;7.70;2.63;;;;;;;;;;5095537;28;20385;-69
2021/05/27 13:26:17;;;;;;;8.82;2.10;;;;;;;;;;5096866;28;20031;-72
2021/05/27 13:28:43;;;;;;;9.02;2.35;;;;;;;;;;5096635;28;20466;-71
2021/05/27 13:31:09;;;;;;;5.78;2.15;;;;;;;;;;5096198;28;20069;-75
2021/05/27 13:33:36;;;;;;;2.85;1.50;;;;;;;;;;5096033;28;20028;-73
2021/05/27 13:36:02;;;;;;;3.15;2.40;;;;;;;;;;5095408;28;20086;-72
2021/05/27 13:38:29;;;;;;;4.90;1.80;;;;;;;;;;5095440;28;20139;-71
2021/05/27 13:40:57;;;;;;;1.92;1.75;;;;;;;;;;5095850;28;20028;-71
2021/05/27 13:43:25;;;;;;;3.50;1.60;;;;;;;;;;5095730;28;20044;-72
2021/05/27 13:45:53;;;;;;;2.03;1.83;;;;;;;;;;5095417;28;20069;-71
2021/05/27 13:48:19;;;;;;;5.88;2.10;;;;;;;;;;5095268;28;20028;-73
2021/05/27 13:50:46;;;;;;;4.43;1.40;;;;;;;;;;5094434;28;20389;-73
2021/05/27 13:53:12;;;;;;;2.40;1.75;;;;;;;;;;5095568;28;20070;-72
2021/05/27 13:55:50;;;;;;;3.90;1.70;;;;;;;;;;5094683;28;20035;-73
2021/05/27 13:58:16;;;;;;;2.58;2.08;;;;;;;;;;5094303;28;20118;-73
2021/05/27 14:00:42;;;;;;;2.60;1.60;;;;;;;;;;5095038;28;20038;-73
2021/05/27 14:03:08;;;;;;;2.40;1.85;;;;;;;;;;5094869;28;20027;-73
2021/05/27 14:05:35;;;;;;;12.30;2.20;;;;;;;;;;5094978;28;20031;-71
2021/05/27 14:08:01;;;;;;;4.20;2.00;;;;;;;;;;5094990;28;20194;-70
2021/05/27 14:10:27;;;;;;;5.53;2.20;;;;;;;;;;5094373;28;20106;-68
2021/05/27 14:12:53;;;;;;;2.75;2.03;;;;;;;;;;5079704;28;20029;-69
2021/05/27 14:15:19;;;;;;;4.28;2.60;;;;;;;;;;5073730;28;20024;-67
2021/05/27 14:17:45;;;;;;;3.05;2.22;;;;;;;;;;5073595;28;20112;-69
2021/05/27 14:20:12;;;;;;;9.02;2.53;;;;;;;;;;5072891;28;20028;-69
2021/05/27 14:22:38;;;;;;;2.70;2.05;;;;;;;;;;5074444;28;20420;-72
2021/05/27 14:25:04;;;;;;;6.95;2.22;;;;;;;;;;5074245;28;20462;-72
2021/05/27 14:27:31;;;;;;;5.35;2.63;;;;;;;;;;5074721;28;20028;-69
2021/05/27 14:29:57;;;;;;;3.30;2.45;;;;;;;;;;5074297;28;20024;-68
2021/05/27 14:32:23;;;;;;;2.33;2.08;;;;;;;;;;5071241;28;20432;-68
2021/05/27 14:34:49;;;;;;;7.88;3.03;;;;;;;;;;5071577;28;20039;-68
2021/05/27 14:37:15;;;;;;;2.70;2.38;;;;;;;;;;5074829;28;20029;-69
2021/05/27 14:39:43;;;;;;;3.10;2.80;;;;;;;;;;5071535;28;20012;-68
2021/05/27 14:42:09;;;;;;;8.00;2.75;;;;;;;;;;5071851;28;20025;-70
2021/05/27 14:44:35;;;;;;;2.92;2.22;;;;;;;;;;5072246;28;20024;-68
2021/05/27 14:47:01;;;;;;;3.08;2.47;;;;;;;;;;5073833;28;20036;-70
2021/05/27 14:49:27;;;;;;;10.38;2.90;;;;;;;;;;5073926;28;20508;-71
2021/05/27 14:51:53;;;;;;;4.82;2.45;;;;;;;;;;5083261;28;20393;-70